Observation data for Andrews on 02/13/2018      Previous  Date  Next       Current Mesonet Observations  Soil Data  Daily Summary Page  Observations in Plain Language
KANS 130605Z 10006KT 00/M09 A3021 RMK A01 T00031089  RH  050%=      5-min Rain = 0
KANS 130610Z 10006KT 01/M09 A3021 RMK A01 T00051088  RH  050%=      5-min Rain = 0
KANS 130615Z 10006KT 01/M09 A3021 RMK A01 T00051088  RH  050%=      5-min Rain = 0
KANS 130620Z 10007KT 01/M09 A3021 RMK A01 T00071087  RH  050%=      5-min Rain = 0
KANS 130625Z 10007KT 01/M09 A3021 RMK A01 T00091086  RH  050%=      5-min Rain = 0
KANS 130630Z 10006KT 01/M09 A3021 RMK A01 T00101086  RH  049%=      5-min Rain = 0
KANS 130635Z 09008KT 01/M09 A302 RMK A01 T00111086  RH  049%=      5-min Rain = 0
KANS 130640Z 10007KT 01/M09 A302 RMK A01 T00111086  RH  049%=      5-min Rain = 0
KANS 130645Z 10007KT 01/M09 A302 RMK A01 T00111085  RH  049%=      5-min Rain = 0
KANS 130650Z 10007KT 01/M08 A302 RMK A01 T00111084  RH  050%=      5-min Rain = 0
KANS 130655Z 09008KT 01/M08 A302 RMK A01 T00131081  RH  050%=      5-min Rain = 0
KANS 130700Z 09008KT 02/M08 A302 RMK A01 T00161079  RH  050%=      5-min Rain = 0
KANS 130705Z 10007KT 02/M08 A302 RMK A01 T00171078  RH  050%=      5-min Rain = 0
KANS 130710Z 10008KT 02/M08 A302 RMK A01 T00171078  RH  050%=      5-min Rain = 0
KANS 130715Z 10007KT 02/M08 A302 RMK A01 T00171078  RH  050%=      5-min Rain = 0
KANS 130720Z 11007KT 02/M08 A302 RMK A01 T00151078  RH  050%=      5-min Rain = 0
KANS 130725Z 11007KT 01/M08 A302 RMK A01 T00141078  RH  051%=      5-min Rain = 0
KANS 130730Z 11007KT 01/M08 A302 RMK A01 T00141078  RH  051%=      5-min Rain = 0
KANS 130735Z 11007KT 01/M08 A3021 RMK A01 T00131078  RH  051%=      5-min Rain = 0
KANS 130740Z 11007KT 01/M08 A302 RMK A01 T00111079  RH  052%=      5-min Rain = 0
KANS 130745Z 11007KT 01/M08 A302 RMK A01 T00101080  RH  052%=      5-min Rain = 0
KANS 130750Z 11007KT 01/M08 A302 RMK A01 T00081079  RH  053%=      5-min Rain = 0
KANS 130755Z 11007KT 01/M08 A302 RMK A01 T00071079  RH  053%=      5-min Rain = 0
KANS 130800Z 11007KT 01/M08 A302 RMK A01 T00071078  RH  054%=      5-min Rain = 0
KANS 130805Z 11007KT 01/M08 A3021 RMK A01 T00061077  RH  054%=      5-min Rain = 0
KANS 130810Z 11006KT 01/M08 A3021 RMK A01 T00071075  RH  055%=      5-min Rain = 0
KANS 130815Z 11006KT 01/M07 A3021 RMK A01 T00071074  RH  055%=      5-min Rain = 0
KANS 130820Z 11006KT 01/M07 A3021 RMK A01 T00071072  RH  056%=      5-min Rain = 0
KANS 130825Z 11006KT 01/M07 A3021 RMK A01 T00081073  RH  056%=      5-min Rain = 0
KANS 130830Z 11006KT 01/M07 A3021 RMK A01 T00081073  RH  055%=      5-min Rain = 0
KANS 130835Z 11006KT 01/M07 A302 RMK A01 T00071074  RH  055%=      5-min Rain = 0
KANS 130840Z 11006KT 01/M08 A302 RMK A01 T00061075  RH  056%=      5-min Rain = 0
KANS 130845Z 12006KT 01/M08 A3021 RMK A01 T00051075  RH  056%=      5-min Rain = 0
KANS 130850Z 12005KT 00/M08 A3021 RMK A01 T00031076  RH  056%=      5-min Rain = 0
KANS 130855Z 11004KT 00/M08 A3021 RMK A01 T00011076  RH  057%=      5-min Rain = 0
KANS 130900Z 11004KT 00/08 A3021 RMK A01 T00000-76  RH  057%=      5-min Rain = 0
KANS 130905Z 11004KT 00/08 A3021 RMK A01 T00-00-76  RH  057%=      5-min Rain = 0
KANS 130910Z 11004KT M00/M08 A3022 RMK A01 T10011075  RH  058%=      5-min Rain = 0
KANS 130915Z 10005KT M00/M07 A3022 RMK A01 T10011074  RH  058%=      5-min Rain = 0
KANS 130920Z 09004KT M00/M07 A3022 RMK A01 T10011073  RH  059%=      5-min Rain = 0
KANS 130925Z 08004KT 00/M07 A3022 RMK A01 T00011071  RH  059%=      5-min Rain = 0
KANS 130930Z 06004KT M00/M07 A3023 RMK A01 T10011072  RH  060%=      5-min Rain = 0
KANS 130935Z 08006KT M00/M07 A3022 RMK A01 T10041072  RH  061%=      5-min Rain = 0
KANS 130940Z 09007KT M01/M07 A3021 RMK A01 T10051071  RH  062%=      5-min Rain = 0
KANS 130945Z 09006KT M01/M07 A3021 RMK A01 T10061071  RH  062%=      5-min Rain = 0
KANS 130950Z 09006KT M01/M07 A3021 RMK A01 T10061071  RH  062%=      5-min Rain = 0
KANS 130955Z 09007KT M00/M07 A3021 RMK A01 T10041069  RH  062%=      5-min Rain = 0
KANS 131000Z 10007KT M00/M07 A3021 RMK A01 T10021068  RH  062%=      5-min Rain = 0
KANS 131005Z 09007KT 00/07 A3021 RMK A01 T00-00-67  RH  062%=      5-min Rain = 0
KANS 131010Z 09006KT 00/07 A3021 RMK A01 T00000-67  RH  061%=      5-min Rain = 0
KANS 131015Z 08004KT 00/07 A3022 RMK A01 T00-00-67  RH  061%=      5-min Rain = 0
KANS 131020Z 07005KT M00/M07 A3022 RMK A01 T10031069  RH  062%=      5-min Rain = 0
KANS 131025Z 06003KT M01/M07 A3022 RMK A01 T10061070  RH  062%=      5-min Rain = 0
KANS 131030Z 07003KT M01/M07 A3022 RMK A01 T10081072  RH  063%=      5-min Rain = 0
KANS 131035Z 10003KT M01/M07 A3022 RMK A01 T10111072  RH  064%=      5-min Rain = 0
KANS 131040Z 12003KT M01/M07 A3022 RMK A01 T10111071  RH  064%=      5-min Rain = 0
KANS 131045Z 12004KT M01/M07 A3023 RMK A01 T10101069  RH  065%=      5-min Rain = 0
KANS 131050Z 10004KT M01/M07 A3023 RMK A01 T10081067  RH  065%=      5-min Rain = 0
KANS 131055Z 08003KT M01/M07 A3023 RMK A01 T10071067  RH  065%=      5-min Rain = 0
KANS 131100Z 03001KT M01/M07 A3024 RMK A01 T10091073  RH  062%=      5-min Rain = 0
KANS 131105Z 06002KT M02/M08 A3024 RMK A01 T10181082  RH  062%=      5-min Rain = 0
KANS 131110Z 09002KT M02/M08 A3024 RMK A01 T10211081  RH  064%=      5-min Rain = 0
KANS 131115Z 10002KT M02/M08 A3024 RMK A01 T10201077  RH  066%=      5-min Rain = 0
KANS 131120Z 10004KT M02/M07 A3024 RMK A01 T10161072  RH  067%=      5-min Rain = 0
KANS 131125Z 10005KT M01/M07 A3024 RMK A01 T10121069  RH  066%=      5-min Rain = 0
KANS 131130Z 09005KT M01/M07 A3023 RMK A01 T10111069  RH  065%=      5-min Rain = 0
KANS 131135Z 07004KT M01/M07 A3023 RMK A01 T10111068  RH  066%=      5-min Rain = 0
KANS 131140Z 07005KT M01/M07 A3023 RMK A01 T10101068  RH  066%=      5-min Rain = 0
KANS 131145Z 07003KT M01/M07 A3024 RMK A01 T10121070  RH  066%=      5-min Rain = 0
KANS 131150Z 07003KT M01/M07 A3023 RMK A01 T10121068  RH  067%=      5-min Rain = 0
KANS 131155Z 06002KT M01/M07 A3023 RMK A01 T10121069  RH  066%=      5-min Rain = 0
KANS 131200Z 04002KT M02/M08 A3023 RMK A01 T10151075  RH  065%=      5-min Rain = 0
KANS 131205Z 01004KT M02/M08 A3024 RMK A01 T10221077  RH  066%=      5-min Rain = 0
KANS 131210Z 01004KT M02/M08 A3024 RMK A01 T10241076  RH  068%=      5-min Rain = 0
KANS 131215Z 02004KT M02/M07 A3024 RMK A01 T10231074  RH  069%=      5-min Rain = 0
KANS 131220Z 01004KT M02/M08 A3024 RMK A01 T10241076  RH  069%=      5-min Rain = 0
KANS 131225Z 02004KT M03/M08 A3025 RMK A01 T10261076  RH  069%=      5-min Rain = 0
KANS 131230Z 03004KT M03/M08 A3025 RMK A01 T10261076  RH  069%=      5-min Rain = 0
KANS 131235Z 03004KT M03/M07 A3025 RMK A01 T10251074  RH  070%=      5-min Rain = 0
KANS 131240Z 03004KT M02/M07 A3025 RMK A01 T10241073  RH  070%=      5-min Rain = 0
KANS 131245Z 04003KT M02/M07 A3025 RMK A01 T10231073  RH  070%=      5-min Rain = 0
KANS 131250Z 04003KT M02/M07 A3025 RMK A01 T10231072  RH  070%=      5-min Rain = 0
KANS 131255Z 03004KT M02/M07 A3025 RMK A01 T10231074  RH  069%=      5-min Rain = 0
KANS 131300Z 04004KT M02/M07 A3025 RMK A01 T10241074  RH  070%=      5-min Rain = 0
KANS 131305Z 05004KT M02/M07 A3026 RMK A01 T10241073  RH  070%=      5-min Rain = 0
KANS 131310Z 04004KT M02/M07 A3025 RMK A01 T10241071  RH  071%=      5-min Rain = 0
KANS 131315Z 03004KT M02/M07 A3025 RMK A01 T10241071  RH  071%=      5-min Rain = 0
KANS 131320Z 04004KT M03/M07 A3026 RMK A01 T10251073  RH  071%=      5-min Rain = 0
KANS 131325Z 05004KT M03/M07 A3026 RMK A01 T10261073  RH  071%=      5-min Rain = 0
KANS 131330Z 04003KT M03/M07 A3026 RMK A01 T10261072  RH  072%=      5-min Rain = 0
KANS 131335Z 03003KT M03/M07 A3027 RMK A01 T10261072  RH  072%=      5-min Rain = 0
KANS 131340Z 03003KT M03/M07 A3027 RMK A01 T10271072  RH  072%=      5-min Rain = 0
KANS 131345Z 03003KT M03/M07 A3027 RMK A01 T10261072  RH  071%=      5-min Rain = 0
KANS 131350Z 04003KT M03/M07 A3027 RMK A01 T10251071  RH  071%=      5-min Rain = 0
KANS 131355Z 05003KT M02/M07 A3027 RMK A01 T10221070  RH  071%=      5-min Rain = 0
KANS 131400Z 04003KT M02/M07 A3027 RMK A01 T10191068  RH  070%=      5-min Rain = 0
KANS 131405Z 05001KT M02/M07 A3027 RMK A01 T10151065  RH  069%=      5-min Rain = 0
KANS 131410Z 06002KT M01/M06 A3027 RMK A01 T10111064  RH  068%=      5-min Rain = 0
KANS 131415Z 04002KT M01/M06 A3028 RMK A01 T10081063  RH  067%=      5-min Rain = 0
KANS 131420Z 06002KT M00/M06 A3028 RMK A01 T10041061  RH  066%=      5-min Rain = 0
KANS 131425Z 04001KT 00/06 A3028 RMK A01 T00000-60  RH  065%=      5-min Rain = 0
KANS 131430Z 02001KT 00/M06 A3029 RMK A01 T00011060  RH  064%=      5-min Rain = 0
KANS 131435Z 04001KT 00/M06 A3029 RMK A01 T00021059  RH  064%=      5-min Rain = 0
KANS 131440Z 08001KT 00/M06 A3029 RMK A01 T00031057  RH  065%=      5-min Rain = 0
KANS 131445Z 08001KT 01/M06 A3029 RMK A01 T00071055  RH  064%=      5-min Rain = 0
KANS 131450Z 11002KT 01/M05 A3029 RMK A01 T00111053  RH  063%=      5-min Rain = 0
KANS 131455Z 13002KT 01/M05 A3029 RMK A01 T00141050  RH  063%=      5-min Rain = 0
KANS 131500Z 13003KT 02/M05 A3029 RMK A01 T00161047  RH  064%=      5-min Rain = 0
KANS 131505Z 12003KT 02/M04 A303 RMK A01 T00201044  RH  063%=      5-min Rain = 0
KANS 131510Z 14003KT 03/M04 A303 RMK A01 T00251041  RH  062%=      5-min Rain = 0
KANS 131515Z 12002KT 03/M04 A303 RMK A01 T00291037  RH  062%=      5-min Rain = 0
KANS 131520Z 15004KT 03/M03 A303 RMK A01 T00341032  RH  063%=      5-min Rain = 0
KANS 131525Z 13005KT 04/M03 A303 RMK A01 T00361028  RH  063%=      5-min Rain = 0
KANS 131530Z 14005KT 04/M03 A303 RMK A01 T00401026  RH  063%=      5-min Rain = 0
KANS 131535Z 16006G11KT 05/M02 A303 RMK A01 T00451019  RH  064%=      5-min Rain = 0
KANS 131540Z 15008KT 05/M01 A303 RMK A01 T00501012  RH  065%=      5-min Rain = 0
KANS 131545Z 16008KT 05/M01 A303 RMK A01 T00541007  RH  066%=      5-min Rain = 0
KANS 131550Z 17008KT 06/M00 A303 RMK A01 T00571004  RH  065%=      5-min Rain = 0
KANS 131555Z 17009G14KT 06/00 A303 RMK A01 T006100-0  RH  066%=      5-min Rain = 0
KANS 131600Z 15009KT 07/00 A303 RMK A01 T00660000  RH  064%=      5-min Rain = 0
KANS 131605Z 16011KT 07/00 A303 RMK A01 T00670002  RH  064%=      5-min Rain = 0
KANS 131610Z 16009KT 07/00 A303 RMK A01 T00700002  RH  063%=      5-min Rain = 0
KANS 131615Z 17008KT 07/00 A3031 RMK A01 T00730003  RH  062%=      5-min Rain = 0
KANS 131620Z 16009KT 08/00 A3031 RMK A01 T00760004  RH  061%=      5-min Rain = 0
KANS 131625Z 16008KT 08/00 A3032 RMK A01 T00760003  RH  060%=      5-min Rain = 0
KANS 131630Z 17009KT 08/00 A3032 RMK A01 T00790004  RH  060%=      5-min Rain = 0
KANS 131635Z 17009KT 08/00 A3032 RMK A01 T00810003  RH  059%=      5-min Rain = 0
KANS 131640Z 16009KT 08/00 A3032 RMK A01 T00810003  RH  058%=      5-min Rain = 0
KANS 131645Z 17007KT 08/00 A3032 RMK A01 T00840004  RH  058%=      5-min Rain = 0
KANS 131650Z 15006KT 09/00 A3032 RMK A01 T00850004  RH  057%=      5-min Rain = 0
KANS 131655Z 16008KT 09/00 A3032 RMK A01 T00890004  RH  056%=      5-min Rain = 0
KANS 131700Z 15009G14KT 09/00 A3032 RMK A01 T00900004  RH  055%=      5-min Rain = 0
KANS 131705Z 14009KT 09/00 A3032 RMK A01 T00920004  RH  055%=      5-min Rain = 0
KANS 131710Z 15008KT 10/01 A3032 RMK A01 T00970005  RH  053%=      5-min Rain = 0
KANS 131715Z 15007KT 10/01 A3032 RMK A01 T00990005  RH  052%=      5-min Rain = 0
KANS 131720Z 15007KT 10/00 A3032 RMK A01 T01010004  RH  052%=      5-min Rain = 0
KANS 131725Z 14008KT 10/00 A3031 RMK A01 T01040004  RH  051%=      5-min Rain = 0
KANS 131730Z 14010KT 11/01 A3031 RMK A01 T01060005  RH  050%=      5-min Rain = 0
KANS 131735Z 14010KT 11/00 A3031 RMK A01 T01100004  RH  049%=      5-min Rain = 0
KANS 131740Z 14009KT 11/00 A303 RMK A01 T01070003  RH  049%=      5-min Rain = 0
KANS 131745Z 14009G14KT 11/00 A303 RMK A01 T01070004  RH  049%=      5-min Rain = 0
KANS 131750Z 15009KT 11/00 A303 RMK A01 T01090004  RH  049%=      5-min Rain = 0
KANS 131755Z 15008KT 11/00 A3029 RMK A01 T01130004  RH  047%=      5-min Rain = 0
KANS 131800Z 16008KT 11/00 A3029 RMK A01 T01110004  RH  048%=      5-min Rain = 0
KANS 131805Z 16007KT 11/01 A303 RMK A01 T01140005  RH  047%=      5-min Rain = 0
KANS 131810Z 17007G12KT 12/01 A303 RMK A01 T01180005  RH  046%=      5-min Rain = 0
KANS 131815Z 15007KT 12/00 A3029 RMK A01 T01240004  RH  044%=      5-min Rain = 0
KANS 131820Z 17007KT 12/00 A3029 RMK A01 T01230003  RH  044%=      5-min Rain = 0
KANS 131825Z 15006KT 12/00 A3029 RMK A01 T01220004  RH  045%=      5-min Rain = 0
KANS 131830Z 16008G13KT 13/00 A3029 RMK A01 T01260004  RH  043%=      5-min Rain = 0
KANS 131835Z 15008KT 13/00 A3029 RMK A01 T01270004  RH  043%=      5-min Rain = 0
KANS 131840Z 16007KT 13/00 A3028 RMK A01 T01330003  RH  041%=      5-min Rain = 0
KANS 131845Z 15007KT 14/00 A3029 RMK A01 T01350002  RH  041%=      5-min Rain = 0
KANS 131850Z 16006G11KT 14/00 A3029 RMK A01 T01360002  RH  040%=      5-min Rain = 0
KANS 131855Z 19007KT 14/00 A3028 RMK A01 T01370002  RH  040%=      5-min Rain = 0
KANS 131900Z 17006KT 14/00 A3028 RMK A01 T01390003  RH  040%=      5-min Rain = 0
KANS 131905Z 16006G11KT 14/00 A3028 RMK A01 T01420002  RH  039%=      5-min Rain = 0
KANS 131910Z 16007KT 15/00 A3028 RMK A01 T01450002  RH  038%=      5-min Rain = 0
KANS 131915Z 14007G15KT 14/00 A3027 RMK A01 T01440002  RH  038%=      5-min Rain = 0
KANS 131920Z 17007KT 15/00 A3027 RMK A01 T01480002  RH  037%=      5-min Rain = 0
KANS 131925Z 15006KT 15/00 A3026 RMK A01 T01490002  RH  037%=      5-min Rain = 0
KANS 131930Z 12008G13KT 15/00 A3026 RMK A01 T015200-0  RH  036%=      5-min Rain = 0
KANS 131935Z 13008G14KT 15/00 A3026 RMK A01 T015200-0  RH  036%=      5-min Rain = 0
KANS 131940Z 13006KT 15/M00 A3026 RMK A01 T01521001  RH  035%=      5-min Rain = 0
KANS 131945Z 16007G12KT 15/M00 A3026 RMK A01 T01531001  RH  035%=      5-min Rain = 0
KANS 131950Z 15008KT 16/M00 A3026 RMK A01 T01551001  RH  035%=      5-min Rain = 0
KANS 131955Z 16007KT 16/M00 A3026 RMK A01 T01581001  RH  034%=      5-min Rain = 0
KANS 132000Z 15008KT 16/M00 A3025 RMK A01 T01591001  RH  034%=      5-min Rain = 0
KANS 132005Z 14009KT 16/M00 A3025 RMK A01 T01611001  RH  034%=      5-min Rain = 0
KANS 132010Z 14007G12KT 16/M00 A3024 RMK A01 T01631001  RH  033%=      5-min Rain = 0
KANS 132015Z 15008KT 17/M00 A3024 RMK A01 T01681001  RH  032%=      5-min Rain = 0
KANS 132020Z 16008KT 17/M00 A3024 RMK A01 T01651001  RH  033%=      5-min Rain = 0
KANS 132025Z 14008G14KT 16/M00 A3024 RMK A01 T01631002  RH  033%=      5-min Rain = 0
KANS 132030Z 15008KT 17/M00 A3024 RMK A01 T01651002  RH  032%=      5-min Rain = 0
KANS 132035Z 16008G15KT 16/M00 A3023 RMK A01 T01641003  RH  032%=      5-min Rain = 0
KANS 132040Z 16007KT 16/M00 A3023 RMK A01 T01621003  RH  033%=      5-min Rain = 0
KANS 132045Z 14008KT 16/M00 A3023 RMK A01 T01641004  RH  032%=      5-min Rain = 0
KANS 132050Z 17007KT 17/M00 A3023 RMK A01 T01651004  RH  032%=      5-min Rain = 0
KANS 132055Z 15008KT 17/M00 A3023 RMK A01 T01661004  RH  032%=      5-min Rain = 0
KANS 132100Z 16008KT 17/M00 A3023 RMK A01 T01681004  RH  031%=      5-min Rain = 0
KANS 132105Z 17006KT 17/M00 A3023 RMK A01 T01701004  RH  031%=      5-min Rain = 0
KANS 132110Z 16007KT 17/M01 A3023 RMK A01 T01701005  RH  031%=      5-min Rain = 0
KANS 132115Z 15007G13KT 17/M00 A3022 RMK A01 T01711004  RH  031%=      5-min Rain = 0
KANS 132120Z 17007KT 17/M00 A3023 RMK A01 T01731004  RH  030%=      5-min Rain = 0
KANS 132125Z 17006KT 18/M00 A3023 RMK A01 T01761004  RH  030%=      5-min Rain = 0
KANS 132130Z 19006KT 17/M00 A3023 RMK A01 T01741004  RH  030%=      5-min Rain = 0
KANS 132135Z 16005G10KT 18/M00 A3023 RMK A01 T01751004  RH  030%=      5-min Rain = 0
KANS 132140Z 18006KT 18/M01 A3022 RMK A01 T01751005  RH  030%=      5-min Rain = 0
KANS 132145Z 18006KT 18/M00 A3023 RMK A01 T01751004  RH  030%=      5-min Rain = 0
KANS 132150Z 17006KT 18/M01 A3023 RMK A01 T01771005  RH  030%=      5-min Rain = 0
KANS 132155Z 16007KT 18/M01 A3023 RMK A01 T01781005  RH  029%=      5-min Rain = 0
KANS 132200Z 16007KT 18/M01 A3022 RMK A01 T01761005  RH  030%=      5-min Rain = 0
KANS 132205Z 16007KT 18/M01 A3022 RMK A01 T01771005  RH  029%=      5-min Rain = 0
KANS 132210Z 17007KT 18/M01 A3022 RMK A01 T01751006  RH  030%=      5-min Rain = 0
KANS 132215Z 18006KT 17/M01 A3022 RMK A01 T01741005  RH  030%=      5-min Rain = 0
KANS 132220Z 17007KT 18/M01 A3022 RMK A01 T01781005  RH  029%=      5-min Rain = 0
KANS 132225Z 20007KT 18/M01 A3022 RMK A01 T01761006  RH  029%=      5-min Rain = 0
KANS 132230Z 17007G12KT 17/M01 A3022 RMK A01 T01741006  RH  030%=      5-min Rain = 0
KANS 132235Z 18007KT 18/M01 A3022 RMK A01 T01761006  RH  029%=      5-min Rain = 0
KANS 132240Z 20007KT 18/M01 A3022 RMK A01 T01801006  RH  029%=      5-min Rain = 0
KANS 132245Z 19007KT 18/M01 A3022 RMK A01 T01791006  RH  029%=      5-min Rain = 0
KANS 132250Z 18006KT 18/M01 A3022 RMK A01 T01791007  RH  029%=      5-min Rain = 0
KANS 132255Z 18007KT 18/M01 A3022 RMK A01 T01771007  RH  029%=      5-min Rain = 0
KANS 132300Z 17005KT 17/M01 A3022 RMK A01 T01741007  RH  029%=      5-min Rain = 0
KANS 132305Z 17006KT 18/M01 A3022 RMK A01 T01751007  RH  029%=      5-min Rain = 0
KANS 132310Z 18005KT 18/M01 A3022 RMK A01 T01761007  RH  029%=      5-min Rain = 0
KANS 132315Z 18006KT 18/M01 A3023 RMK A01 T01751007  RH  029%=      5-min Rain = 0
KANS 132320Z 18007KT 17/M01 A3023 RMK A01 T01741007  RH  029%=      5-min Rain = 0
KANS 132325Z 16007KT 17/M01 A3023 RMK A01 T01741007  RH  030%=      5-min Rain = 0
KANS 132330Z 17006KT 18/M01 A3023 RMK A01 T01761007  RH  029%=      5-min Rain = 0
KANS 132335Z 16007KT 18/M01 A3022 RMK A01 T01751007  RH  029%=      5-min Rain = 0
KANS 132340Z 17007KT 17/M01 A3022 RMK A01 T01721008  RH  030%=      5-min Rain = 0
KANS 132345Z 17006KT 17/M01 A3023 RMK A01 T01701008  RH  030%=      5-min Rain = 0
KANS 132350Z 18007KT 17/M01 A3023 RMK A01 T01681008  RH  031%=      5-min Rain = 0
KANS 132355Z 18006KT 17/M01 A3023 RMK A01 T01661008  RH  031%=      5-min Rain = 0
KANS 140000Z 17004KT 16/M01 A3023 RMK A01 T01641008  RH  031%=      5-min Rain = 0
KANS 140005Z 17004KT 16/M01 A3023 RMK A01 T01621008  RH  032%=      5-min Rain = 0
KANS 140010Z 16004KT 16/M01 A3023 RMK A01 T01601008  RH  032%=      5-min Rain = 0
KANS 140015Z 16004KT 16/M01 A3023 RMK A01 T01581009  RH  032%=      5-min Rain = 0
KANS 140020Z 16003KT 16/M01 A3023 RMK A01 T01561009  RH  033%=      5-min Rain = 0
KANS 140025Z 16003KT 15/M01 A3024 RMK A01 T01541009  RH  033%=      5-min Rain = 0
KANS 140030Z 16003KT 15/M01 A3024 RMK A01 T01531009  RH  033%=      5-min Rain = 0
KANS 140035Z 16004KT 15/M01 A3024 RMK A01 T01501010  RH  034%=      5-min Rain = 0
KANS 140040Z 16004KT 15/M01 A3023 RMK A01 T01481010  RH  034%=      5-min Rain = 0
KANS 140045Z 16004KT 15/M01 A3024 RMK A01 T01471009  RH  034%=      5-min Rain = 0
KANS 140050Z 16004KT 15/M01 A3024 RMK A01 T01461010  RH  035%=      5-min Rain = 0
KANS 140055Z 16005KT 14/M01 A3024 RMK A01 T01441011  RH  035%=      5-min Rain = 0
KANS 140100Z 17005KT 14/M01 A3024 RMK A01 T01421011  RH  035%=      5-min Rain = 0
KANS 140105Z 17006KT 14/M01 A3024 RMK A01 T01401010  RH  036%=      5-min Rain = 0
KANS 140110Z 17006KT 14/M01 A3024 RMK A01 T01401009  RH  036%=      5-min Rain = 0
KANS 140115Z 17005KT 14/M01 A3024 RMK A01 T01401009  RH  036%=      5-min Rain = 0
KANS 140120Z 17006KT 14/M01 A3024 RMK A01 T01391010  RH  036%=      5-min Rain = 0
KANS 140125Z 18004KT 14/M01 A3024 RMK A01 T01381009  RH  037%=      5-min Rain = 0
KANS 140130Z 18004KT 14/M01 A3024 RMK A01 T01361009  RH  037%=      5-min Rain = 0
KANS 140135Z 17004KT 13/M01 A3025 RMK A01 T01341009  RH  038%=      5-min Rain = 0
KANS 140140Z 19005KT 13/M01 A3025 RMK A01 T01321008  RH  038%=      5-min Rain = 0
KANS 140145Z 18005KT 13/M01 A3025 RMK A01 T01311008  RH  039%=      5-min Rain = 0
KANS 140150Z 17004KT 13/M01 A3025 RMK A01 T01301007  RH  039%=      5-min Rain = 0
KANS 140155Z 17005KT 13/M01 A3025 RMK A01 T01291008  RH  039%=      5-min Rain = 0
KANS 140200Z 17005KT 13/M01 A3025 RMK A01 T01271008  RH  040%=      5-min Rain = 0
KANS 140205Z 17005KT 13/M01 A3025 RMK A01 T01271007  RH  040%=      5-min Rain = 0
KANS 140210Z 17005KT 13/M01 A3025 RMK A01 T01271007  RH  040%=      5-min Rain = 0
KANS 140215Z 17005KT 13/M01 A3025 RMK A01 T01271006  RH  040%=      5-min Rain = 0
KANS 140220Z 18005KT 13/M01 A3025 RMK A01 T01261006  RH  040%=      5-min Rain = 0
KANS 140225Z 17005KT 13/M01 A3025 RMK A01 T01261006  RH  040%=      5-min Rain = 0
KANS 140230Z 17005KT 13/M01 A3025 RMK A01 T01271006  RH  040%=      5-min Rain = 0
KANS 140235Z 17004KT 13/M01 A3025 RMK A01 T01271005  RH  041%=      5-min Rain = 0
KANS 140240Z 18005KT 13/M01 A3025 RMK A01 T01281005  RH  040%=      5-min Rain = 0
KANS 140245Z 18006KT 13/M01 A3025 RMK A01 T01291005  RH  040%=      5-min Rain = 0
KANS 140250Z 17006KT 13/M01 A3025 RMK A01 T01291005  RH  040%=      5-min Rain = 0
KANS 140255Z 17005KT 13/M01 A3024 RMK A01 T01281005  RH  040%=      5-min Rain = 0
KANS 140300Z 17005KT 13/M00 A3025 RMK A01 T01301004  RH  040%=      5-min Rain = 0
KANS 140305Z 18005KT 13/M01 A3025 RMK A01 T01301005  RH  040%=      5-min Rain = 0
KANS 140310Z 18006KT 13/M01 A3026 RMK A01 T01291005  RH  040%=      5-min Rain = 0
KANS 140315Z 19005KT 13/M01 A3026 RMK A01 T01271005  RH  041%=      5-min Rain = 0
KANS 140320Z 18006KT 13/M01 A3026 RMK A01 T01251005  RH  041%=      5-min Rain = 0
KANS 140325Z 18006KT 12/M01 A3026 RMK A01 T01231006  RH  042%=      5-min Rain = 0
KANS 140330Z 19005KT 12/M01 A3025 RMK A01 T01211005  RH  042%=      5-min Rain = 0
KANS 140335Z 19005KT 12/M00 A3025 RMK A01 T01211004  RH  042%=      5-min Rain = 0
KANS 140340Z 19005KT 12/M00 A3025 RMK A01 T01221004  RH  042%=      5-min Rain = 0
KANS 140345Z 19005KT 12/M00 A3026 RMK A01 T01211004  RH  043%=      5-min Rain = 0
KANS 140350Z 19005KT 12/M00 A3026 RMK A01 T01211003  RH  043%=      5-min Rain = 0
KANS 140355Z 18006KT 12/M00 A3026 RMK A01 T01191004  RH  043%=      5-min Rain = 0
KANS 140400Z 18006KT 12/M01 A3026 RMK A01 T01161005  RH  044%=      5-min Rain = 0
KANS 140405Z 19006KT 11/M01 A3026 RMK A01 T01131005  RH  045%=      5-min Rain = 0
KANS 140410Z 19006KT 11/M01 A3026 RMK A01 T01111005  RH  045%=      5-min Rain = 0
KANS 140415Z 19006KT 11/M00 A3026 RMK A01 T01101004  RH  046%=      5-min Rain = 0
KANS 140420Z 19006KT 11/M00 A3026 RMK A01 T01101003  RH  046%=      5-min Rain = 0
KANS 140425Z 19006KT 11/M00 A3026 RMK A01 T01091003  RH  046%=      5-min Rain = 0
KANS 140430Z 19006KT 11/M00 A3026 RMK A01 T01081003  RH  047%=      5-min Rain = 0
KANS 140435Z 19006KT 11/M00 A3026 RMK A01 T01061003  RH  047%=      5-min Rain = 0
KANS 140440Z 19006KT 11/M00 A3026 RMK A01 T01051002  RH  048%=      5-min Rain = 0
KANS 140445Z 19006KT 11/M00 A3026 RMK A01 T01051002  RH  048%=      5-min Rain = 0
KANS 140450Z 18006KT 10/M00 A3025 RMK A01 T01041002  RH  049%=      5-min Rain = 0
KANS 140455Z 19006KT 10/M00 A3026 RMK A01 T01011002  RH  049%=      5-min Rain = 0
KANS 140500Z 20006KT 10/00 A3026 RMK A01 T010100-0  RH  050%=      5-min Rain = 0
KANS 140505Z 20005KT 10/00 A3026 RMK A01 T01040000  RH  049%=      5-min Rain = 0
KANS 140510Z 21004KT 11/00 A3026 RMK A01 T01050001  RH  049%=      5-min Rain = 0
KANS 140515Z 22005KT 11/00 A3026 RMK A01 T01050003  RH  050%=      5-min Rain = 0
KANS 140520Z 21005KT 11/00 A3026 RMK A01 T01050004  RH  050%=      5-min Rain = 0
KANS 140525Z 21006KT 11/01 A3026 RMK A01 T01050005  RH  051%=      5-min Rain = 0
KANS 140530Z 21005KT 11/01 A3025 RMK A01 T01060007  RH  051%=      5-min Rain = 0
KANS 140535Z 21006KT 11/01 A3025 RMK A01 T01060008  RH  051%=      5-min Rain = 0
KANS 140540Z 21006KT 11/01 A3025 RMK A01 T01060007  RH  051%=      5-min Rain = 0
KANS 140545Z 20006KT 11/01 A3025 RMK A01 T01060007  RH  051%=      5-min Rain = 0
KANS 140550Z 21006KT 11/01 A3025 RMK A01 T01050007  RH  051%=      5-min Rain = 0
KANS 140555Z 22006KT 10/01 A3025 RMK A01 T01030005  RH  051%=      5-min Rain = 0
KANS 140600Z 22005KT 10/00 A3025 RMK A01 T01010004  RH  051%=      5-min Rain = 0

Page generated in 0.0833 seconds.